createdAt,value
2018-03-09T00:01:10.640Z,99533.42
2018-03-09T00:03:37.555Z,99532.45
2018-03-09T00:06:04.334Z,99543.20
2018-03-09T00:08:32.216Z,99541.48
2018-03-09T00:10:59.647Z,99548.33
2018-03-09T00:13:27.618Z,99543.83
2018-03-09T00:15:56.017Z,99548.27
2018-03-09T00:18:23.948Z,99547.05
2018-03-09T00:20:50.708Z,99549.66
2018-03-09T00:23:17.375Z,99557.66
2018-03-09T00:25:44.940Z,99554.19
2018-03-09T00:28:11.562Z,99560.13
2018-03-09T00:30:38.146Z,99561.17
2018-03-09T00:33:05.299Z,99561.70
2018-03-09T00:35:31.902Z,99566.56
2018-03-09T00:37:58.824Z,99568.48
2018-03-09T00:40:26.108Z,99568.50
2018-03-09T00:42:53.235Z,99566.84
2018-03-09T00:45:19.871Z,99565.43
2018-03-09T00:47:47.330Z,99564.75
2018-03-09T00:50:13.986Z,99564.12
2018-03-09T00:52:42.421Z,99570.02
2018-03-09T00:55:09.023Z,99569.28
2018-03-09T00:57:35.781Z,99572.84
2018-03-09T01:00:02.448Z,99569.36
2018-03-09T01:02:29.197Z,99565.86
2018-03-09T01:04:55.945Z,99578.98
2018-03-09T01:07:22.515Z,99579.98
2018-03-09T01:09:49.115Z,99581.02
2018-03-09T01:12:16.799Z,99581.98
2018-03-09T01:14:43.583Z,99575.84
2018-03-09T01:17:10.216Z,99583.09
2018-03-09T01:19:36.938Z,99586.00
2018-03-09T01:22:03.730Z,99581.12
2018-03-09T01:24:30.443Z,99589.07
2018-03-09T01:26:57.030Z,99585.12
2018-03-09T01:29:23.822Z,99580.84
2018-03-09T01:31:50.790Z,99581.02
2018-03-09T01:34:17.432Z,99584.39
2018-03-09T01:36:44.368Z,99590.54
2018-03-09T01:39:10.960Z,99590.97
2018-03-09T01:41:37.916Z,99588.08
2018-03-09T01:44:04.517Z,99589.81
2018-03-09T01:46:32.241Z,99590.01
2018-03-09T01:48:58.846Z,99590.79
2018-03-09T01:51:25.780Z,99595.39
2018-03-09T01:53:52.708Z,99596.63
2018-03-09T01:56:19.307Z,99595.17
2018-03-09T01:58:45.915Z,99594.55
2018-03-09T02:01:12.507Z,99602.70
2018-03-09T02:03:40.313Z,99598.97
2018-03-09T02:06:07.075Z,99597.39
2018-03-09T02:08:33.644Z,99599.02
2018-03-09T02:11:00.880Z,99601.73
2018-03-09T02:13:28.055Z,99599.30
2018-03-09T02:15:54.696Z,99601.27
2018-03-09T02:18:21.578Z,99610.14
2018-03-09T02:20:48.440Z,99604.91
2018-03-09T02:23:15.060Z,99606.02
2018-03-09T02:25:42.073Z,99608.11
2018-03-09T02:28:08.903Z,99603.35
2018-03-09T02:30:35.653Z,99617.78
2018-03-09T02:33:02.271Z,99622.04
2018-03-09T02:35:29.125Z,99621.80
2018-03-09T02:37:56.053Z,99620.14
2018-03-09T02:40:22.844Z,99622.30
2018-03-09T02:42:49.429Z,99624.62
2018-03-09T02:45:16.009Z,99629.84
2018-03-09T02:47:42.617Z,99619.70
2018-03-09T02:50:09.269Z,99620.55
2018-03-09T02:52:36.176Z,99629.64
2018-03-09T02:55:02.856Z,99633.04
2018-03-09T02:57:29.445Z,99638.53
2018-03-09T02:59:56.288Z,99639.43
2018-03-09T03:02:22.884Z,99641.30
2018-03-09T03:04:49.468Z,99640.02
2018-03-09T03:07:16.095Z,99638.73
2018-03-09T03:09:42.997Z,99628.50
2018-03-09T03:12:09.827Z,99638.17
2018-03-09T03:14:36.445Z,99637.97
2018-03-09T03:17:03.200Z,99640.67
2018-03-09T03:19:29.795Z,99641.98
2018-03-09T03:21:56.505Z,99637.97
2018-03-09T03:24:23.483Z,99639.05
2018-03-09T03:26:50.078Z,99647.27
2018-03-09T03:29:17.427Z,99645.68
2018-03-09T03:31:44.019Z,99643.31
2018-03-09T03:34:10.632Z,99642.80
2018-03-09T03:36:38.267Z,99646.69
2018-03-09T03:39:04.946Z,99646.80
2018-03-09T03:41:31.575Z,99656.52
2018-03-09T03:43:58.159Z,99650.30
2018-03-09T03:46:24.954Z,99659.70
2018-03-09T03:48:51.641Z,99656.62
2018-03-09T03:51:18.594Z,99651.53
2018-03-09T03:53:45.386Z,99661.44
2018-03-09T03:56:12.157Z,99663.11
2018-03-09T03:58:38.744Z,99659.11
2018-03-09T04:01:05.340Z,99660.05
2018-03-09T04:03:32.264Z,99673.40
2018-03-09T04:05:58.871Z,99676.11
2018-03-09T04:08:25.553Z,99680.57
2018-03-09T04:10:52.129Z,99692.00
2018-03-09T04:13:18.851Z,99690.01
2018-03-09T04:15:45.828Z,99685.92
2018-03-09T04:18:12.424Z,99677.59
2018-03-09T04:20:39.194Z,99684.87
2018-03-09T04:23:05.776Z,99679.92
2018-03-09T04:25:32.386Z,99682.16
2018-03-09T04:27:59.103Z,99685.92
2018-03-09T04:30:26.044Z,99695.90
2018-03-09T04:32:52.686Z,99694.47
2018-03-09T04:35:19.294Z,99686.31
2018-03-09T04:37:46.020Z,99693.88
2018-03-09T04:40:12.867Z,99685.33
2018-03-09T04:42:40.518Z,99687.30
2018-03-09T04:45:07.117Z,99689.89
2018-03-09T04:47:33.717Z,99700.89
2018-03-09T04:50:00.303Z,99699.70
2018-03-09T04:52:27.107Z,99702.36
2018-03-09T04:54:53.788Z,99697.20
2018-03-09T04:57:20.478Z,99697.37
2018-03-09T04:59:47.302Z,99698.84
2018-03-09T05:02:14.660Z,99707.12
2018-03-09T05:04:41.258Z,99712.85
2018-03-09T05:07:08.137Z,99703.54
2018-03-09T05:09:34.724Z,99709.48
2018-03-09T05:12:01.590Z,99704.09
2018-03-09T05:14:28.402Z,99711.10
2018-03-09T05:16:54.984Z,99715.41
2018-03-09T05:19:21.665Z,99721.73
2018-03-09T05:21:48.247Z,99717.28
2018-03-09T05:24:15.236Z,99719.92
2018-03-09T05:26:42.016Z,99724.47
2018-03-09T05:29:08.811Z,99721.47
2018-03-09T05:31:35.410Z,99724.24
2018-03-09T05:34:02.742Z,99723.61
2018-03-09T05:36:29.364Z,99726.47
2018-03-09T05:38:56.218Z,99727.55
2018-03-09T05:41:22.986Z,99730.50
2018-03-09T05:43:49.558Z,99734.55
2018-03-09T05:46:16.309Z,99740.22
2018-03-09T05:48:43.119Z,99744.56
2018-03-09T05:51:10.148Z,99749.06
2018-03-09T05:53:37.179Z,99744.14
2018-03-09T05:56:04.283Z,99752.11
2018-03-09T05:58:30.878Z,99759.69
2018-03-09T06:00:57.881Z,99762.55
2018-03-09T06:03:24.621Z,99765.44
2018-03-09T06:05:51.955Z,99772.56
2018-03-09T06:08:18.501Z,99763.66
2018-03-09T06:13:55.526Z,99766.81
2018-03-09T06:16:22.304Z,99768.75
2018-03-09T06:18:48.960Z,99767.47
2018-03-09T06:21:15.644Z,99769.39
2018-03-09T06:23:42.453Z,99778.22
2018-03-09T06:26:09.119Z,99770.78
2018-03-09T06:28:35.787Z,99779.53
2018-03-09T06:31:02.478Z,99778.09
2018-03-09T06:33:29.097Z,99782.52
2018-03-09T06:39:05.991Z,99786.70
2018-03-09T06:41:32.868Z,99785.64
2018-03-09T06:44:00.362Z,99781.75
2018-03-09T06:46:27.257Z,99784.00
2018-03-09T06:48:54.814Z,99777.57
2018-03-09T06:51:21.605Z,99785.03
2018-03-09T06:53:48.352Z,99792.89
2018-03-09T06:56:15.101Z,99788.48
2018-03-09T06:58:42.162Z,99799.38
2018-03-09T07:01:08.905Z,99800.16
2018-03-09T07:03:35.644Z,99802.69
2018-03-09T07:06:02.394Z,99802.72
2018-03-09T07:08:29.197Z,99816.91
2018-03-09T07:10:56.704Z,99812.45
2018-03-09T07:13:23.487Z,99810.11
2018-03-09T07:15:50.205Z,99811.97
2018-03-09T07:18:16.812Z,99813.98
2018-03-09T07:20:43.377Z,99813.13
2018-03-09T07:23:09.953Z,99820.93
2018-03-09T07:25:36.769Z,99827.34
2018-03-09T07:28:04.212Z,99823.09
2018-03-09T07:30:30.908Z,99816.98
2018-03-09T07:32:57.568Z,99822.48
2018-03-09T07:35:24.158Z,99830.63
2018-03-09T07:37:50.790Z,99827.22
2018-03-09T07:40:17.510Z,99833.95
2018-03-09T07:42:44.076Z,99828.74
2018-03-09T07:45:10.676Z,99828.95
2018-03-09T07:47:37.358Z,99831.63
2018-03-09T07:50:03.975Z,99834.42
2018-03-09T07:52:30.693Z,99837.40
2018-03-09T07:54:57.328Z,99834.80
2018-03-09T07:57:23.972Z,99837.53
2018-03-09T07:59:50.593Z,99842.84
2018-03-09T08:02:17.986Z,99843.17
2018-03-09T08:04:44.593Z,99846.19
2018-03-09T08:07:11.269Z,99853.86
2018-03-09T08:09:37.907Z,99850.29
2018-03-09T08:12:04.616Z,99849.13
2018-03-09T08:14:31.318Z,99853.50
2018-03-09T08:16:57.960Z,99854.19
2018-03-09T08:19:24.620Z,99858.51
2018-03-09T08:21:51.324Z,99857.41
2018-03-09T08:24:18.019Z,99862.73
2018-03-09T08:26:45.422Z,99862.35
2018-03-09T08:29:12.036Z,99858.34
2018-03-09T08:31:38.784Z,99862.05
2018-03-09T08:34:06.156Z,99862.63
2018-03-09T08:36:32.742Z,99861.22
2018-03-09T08:38:59.374Z,99867.19
2018-03-09T08:41:25.993Z,99868.74
2018-03-09T08:43:52.586Z,99866.66
2018-03-09T08:46:19.290Z,99864.37
2018-03-09T08:48:45.970Z,99867.00
2018-03-09T08:51:13.084Z,99865.06
2018-03-09T08:53:39.778Z,99867.31
2018-03-09T08:56:06.431Z,99873.69
2018-03-09T08:58:33.167Z,99864.53
2018-03-09T09:00:59.904Z,99865.20
2018-03-09T09:03:26.669Z,99870.94
2018-03-09T09:05:53.327Z,99867.45
2018-03-09T09:08:20.912Z,99865.38
2018-03-09T09:10:47.497Z,99862.75
2018-03-09T09:13:14.193Z,99870.59
2018-03-09T09:15:40.897Z,99868.34
2018-03-09T09:18:07.595Z,99868.95
2018-03-09T09:20:34.217Z,99866.17
2018-03-09T09:23:00.936Z,99872.17
2018-03-09T09:25:27.626Z,99870.77
2018-03-09T09:27:54.400Z,99875.66
2018-03-09T09:30:21.050Z,99871.83
2018-03-09T09:32:47.665Z,99866.73
2018-03-09T09:35:14.262Z,99875.84
2018-03-09T09:37:40.930Z,99872.08
2018-03-09T09:40:07.529Z,99869.13
2018-03-09T09:42:34.275Z,99868.36
2018-03-09T09:45:00.888Z,99866.39
2018-03-09T09:47:27.757Z,99869.76
2018-03-09T09:49:54.372Z,99862.68
2018-03-09T09:52:20.996Z,99872.70
2018-03-09T09:54:47.624Z,99872.19
2018-03-09T09:57:16.231Z,99874.16
2018-03-09T09:59:42.868Z,99886.27
2018-03-09T10:02:09.500Z,99875.36
2018-03-09T10:04:36.106Z,99880.98
2018-03-09T10:07:02.716Z,99880.92
2018-03-09T10:09:29.325Z,99879.89
2018-03-09T10:11:56.658Z,99882.95
2018-03-09T10:14:23.372Z,99877.59
2018-03-09T10:16:49.973Z,99879.56
2018-03-09T10:19:16.682Z,99879.02
2018-03-09T10:21:44.055Z,99884.16
2018-03-09T10:24:10.725Z,99879.05
2018-03-09T10:26:37.365Z,99879.78
2018-03-09T10:29:04.326Z,99874.91
2018-03-09T10:31:30.966Z,99877.38
2018-03-09T10:33:57.648Z,99875.62
2018-03-09T10:36:24.356Z,99876.39
2018-03-09T10:38:50.963Z,99874.51
2018-03-09T10:41:17.601Z,99874.83
2018-03-09T10:43:44.238Z,99880.16
2018-03-09T10:46:16.203Z,99871.73
2018-03-09T10:48:42.815Z,99881.47
2018-03-09T10:51:09.497Z,99886.64
2018-03-09T10:53:36.773Z,99886.80
2018-03-09T10:56:03.389Z,99883.14
2018-03-09T10:58:31.492Z,99895.15
2018-03-09T11:01:02.755Z,99891.28
2018-03-09T11:03:29.565Z,99895.42
2018-03-09T11:05:57.848Z,99882.62
2018-03-09T11:08:51.914Z,99888.66
2018-03-09T11:11:18.625Z,99889.91
2018-03-09T11:13:47.563Z,99892.03
2018-03-09T11:16:15.659Z,99889.23
2018-03-09T11:18:50.507Z,99885.91
2018-03-09T11:21:17.085Z,99886.34
2018-03-09T11:24:03.860Z,99885.25
2018-03-09T11:26:30.533Z,99884.82
2018-03-09T11:28:57.244Z,99883.60
2018-03-09T11:34:35.062Z,99871.51
2018-03-09T11:37:05.281Z,99874.80
2018-03-09T11:39:32.035Z,99877.05
2018-03-09T11:41:58.659Z,99875.86
2018-03-09T11:44:25.781Z,99865.22
2018-03-09T11:46:52.444Z,99860.51
2018-03-09T11:49:19.076Z,99859.78
2018-03-09T11:51:47.800Z,99850.84
2018-03-09T11:54:14.498Z,99844.05
2018-03-09T11:56:41.090Z,99844.22
2018-03-09T11:59:10.243Z,99842.55
2018-03-09T12:01:37.753Z,99850.45
2018-03-09T12:04:04.412Z,99837.91
2018-03-09T12:06:31.173Z,99831.91
2018-03-09T12:08:57.787Z,99834.37
2018-03-09T12:14:34.670Z,99827.59
2018-03-09T12:17:01.284Z,99825.37
2018-03-09T12:19:28.780Z,99825.45
2018-03-09T12:21:57.593Z,99824.95
2018-03-09T12:24:24.331Z,99821.31
2018-03-09T12:30:00.878Z,99820.63
2018-03-09T12:32:27.527Z,99813.73
2018-03-09T12:34:54.127Z,99818.73
2018-03-09T12:37:20.763Z,99822.97
2018-03-09T12:39:47.392Z,99819.44
2018-03-09T12:42:14.012Z,99816.04
2018-03-09T12:44:41.035Z,99807.81
2018-03-09T12:47:07.705Z,99805.22
2018-03-09T12:49:34.487Z,99802.56
2018-03-09T12:52:01.276Z,99805.83
2018-03-09T12:54:27.980Z,99805.84
2018-03-09T12:56:54.749Z,99803.33
2018-03-09T12:59:22.292Z,99806.63
2018-03-09T13:01:50.344Z,99798.98
2018-03-09T13:04:17.835Z,99798.41
2018-03-09T13:06:45.288Z,99795.34
2018-03-09T13:09:18.070Z,99788.27
2018-03-09T13:14:26.716Z,99781.23
2018-03-09T13:16:56.029Z,99787.72
2018-03-09T13:19:23.324Z,99786.38
2018-03-09T13:31:05.254Z,99791.79
2018-03-09T13:33:33.926Z,99786.63
2018-03-09T13:36:01.404Z,99784.52
2018-03-09T13:38:28.898Z,99776.50
2018-03-09T13:40:59.219Z,99786.27
2018-03-09T13:43:29.918Z,99787.59
2018-03-09T13:46:03.865Z,99793.62
2018-03-09T13:48:31.296Z,99793.73
2018-03-09T13:50:58.640Z,99799.14
2018-03-09T13:53:50.168Z,99807.20
2018-03-09T13:56:18.608Z,99808.13
2018-03-09T13:58:47.613Z,99799.57
2018-03-09T14:01:15.261Z,99801.91
2018-03-09T14:03:42.825Z,99790.73
2018-03-09T14:06:11.779Z,99788.11
2018-03-09T14:08:39.281Z,99787.12
2018-03-09T14:14:16.910Z,99772.44
2018-03-09T14:16:45.033Z,99775.88
2018-03-09T14:19:12.787Z,99769.84
2018-03-09T14:21:40.086Z,99772.37
2018-03-09T14:24:06.685Z,99771.23
2018-03-09T14:26:33.293Z,99771.42
2018-03-09T14:29:09.730Z,99765.02
2018-03-09T14:31:36.395Z,99767.78
2018-03-09T14:34:30.131Z,99770.08
2018-03-09T14:36:56.937Z,99770.00
2018-03-09T14:39:23.531Z,99770.00
2018-03-09T14:41:50.132Z,99774.39
2018-03-09T14:44:16.776Z,99781.40
2018-03-09T14:46:43.435Z,99770.23
2018-03-09T14:49:10.026Z,99768.06
2018-03-09T14:51:39.874Z,99771.83
2018-03-09T14:54:06.589Z,99769.84
2018-03-09T14:56:36.003Z,99769.14
2018-03-09T14:59:04.979Z,99768.41
2018-03-09T15:01:33.294Z,99767.98
2018-03-09T15:04:01.210Z,99768.83
2018-03-09T15:06:29.478Z,99771.71
2018-03-09T15:08:57.244Z,99763.73
2018-03-09T15:11:23.851Z,99756.69
2018-03-09T15:13:50.461Z,99753.69
2018-03-09T15:16:18.435Z,99754.55
2018-03-09T15:18:46.771Z,99744.00
2018-03-09T15:21:13.810Z,99747.80
2018-03-09T15:23:40.381Z,99748.52
2018-03-09T15:26:08.648Z,99747.34
2018-03-09T15:28:36.889Z,99745.17
2018-03-09T15:31:05.591Z,99743.42
2018-03-09T15:33:34.279Z,99758.80
2018-03-09T15:36:03.901Z,99756.65
2018-03-09T15:38:30.561Z,99759.01
2018-03-09T15:43:36.475Z,99752.89
2018-03-09T15:46:05.134Z,99755.05
2018-03-09T15:51:45.982Z,99752.80
2018-03-09T15:54:13.334Z,99752.64
2018-03-09T15:56:39.913Z,99739.26
2018-03-09T15:59:09.342Z,99738.97
2018-03-09T16:01:43.239Z,99735.11
2018-03-09T16:04:10.256Z,99732.98
2018-03-09T16:06:36.924Z,99736.45
2018-03-09T16:09:04.702Z,99730.58
2018-03-09T16:11:31.301Z,99734.13
2018-03-09T16:16:33.562Z,99735.50
2018-03-09T16:19:00.161Z,99731.66
2018-03-09T16:21:26.832Z,99731.34
2018-03-09T16:23:53.474Z,99738.19
2018-03-09T16:26:30.369Z,99729.42
2018-03-09T16:28:57.119Z,99730.20
2018-03-09T16:31:23.720Z,99738.77
2018-03-09T16:33:50.915Z,99735.52
2018-03-09T16:36:17.582Z,99738.87
2018-03-09T16:38:44.337Z,99737.55
2018-03-09T16:41:11.003Z,99737.73
2018-03-09T16:43:37.660Z,99737.91
2018-03-09T16:46:04.291Z,99736.66
2018-03-09T16:48:30.887Z,99739.94
2018-03-09T16:50:57.510Z,99737.13
2018-03-09T16:53:24.741Z,99739.44
2018-03-09T16:55:52.015Z,99742.47
2018-03-09T16:58:19.392Z,99743.53
2018-03-09T17:00:45.936Z,99742.89
2018-03-09T17:03:12.495Z,99739.29
2018-03-09T17:05:39.093Z,99738.36
2018-03-09T17:08:05.646Z,99733.98
2018-03-09T17:10:32.232Z,99728.94
2018-03-09T17:12:59.395Z,99728.19
2018-03-09T17:15:25.957Z,76571.59
2018-03-09T17:17:53.252Z,76581.71
2018-03-09T17:20:19.895Z,76578.67
2018-03-09T17:22:46.486Z,76576.66
2018-03-09T17:25:14.125Z,76594.87
2018-03-09T17:27:40.713Z,76618.14
2018-03-09T17:30:08.027Z,76624.21
2018-03-09T17:32:34.739Z,76639.39
2018-03-09T17:35:01.296Z,76628.26
2018-03-09T17:37:36.249Z,76622.19
2018-03-09T17:40:02.878Z,76649.51
2018-03-09T17:42:29.542Z,76672.78
2018-03-09T17:44:56.148Z,76645.46
2018-03-09T17:47:24.228Z,76660.64
2018-03-09T17:49:50.909Z,76681.89
2018-03-09T17:52:18.223Z,76664.69
2018-03-09T17:54:44.872Z,76691.00
2018-03-09T17:57:11.895Z,76710.22
2018-03-09T17:59:38.466Z,76735.52
2018-03-09T18:02:05.140Z,76733.50
2018-03-09T18:04:31.743Z,76725.41
2018-03-09T18:06:58.383Z,76719.33
2018-03-09T18:09:25.780Z,76705.16
2018-03-09T18:11:53.906Z,76688.97
2018-03-09T18:14:22.284Z,76665.70
2018-03-09T18:16:52.905Z,76684.92
2018-03-09T18:19:19.494Z,76678.86
2018-03-09T18:21:47.453Z,76682.91
2018-03-09T18:24:14.082Z,76687.96
2018-03-09T18:26:48.535Z,76686.95
2018-03-09T18:29:15.285Z,76658.62
2018-03-09T18:31:41.921Z,76661.65
2018-03-09T18:34:08.541Z,76676.83
2018-03-09T18:36:43.190Z,76693.02
2018-03-09T18:39:13.932Z,76689.98
2018-03-09T18:41:40.912Z,76689.98
2018-03-09T18:44:08.265Z,76691.00
2018-03-09T18:46:35.683Z,76691.00
2018-03-09T18:49:02.905Z,76715.28
2018-03-09T18:51:29.572Z,76704.16
2018-03-09T18:53:56.177Z,76675.82
2018-03-09T18:56:22.812Z,76679.87
2018-03-09T18:58:50.052Z,76656.59
2018-03-09T19:01:16.735Z,76655.58
2018-03-09T19:03:43.579Z,76679.87
2018-03-09T19:06:10.452Z,76664.69
2018-03-09T19:08:37.577Z,76674.81
2018-03-09T19:11:04.247Z,76698.08
2018-03-09T19:13:30.861Z,76700.11
2018-03-09T19:15:58.295Z,76697.07
2018-03-09T19:18:24.900Z,76687.96
2018-03-09T19:20:51.530Z,76679.87
2018-03-09T19:23:18.152Z,76691.00
2018-03-09T19:25:45.636Z,76689.98
2018-03-09T19:28:12.930Z,76700.11
2018-03-09T19:30:40.277Z,76675.82
2018-03-09T19:33:06.947Z,76692.01
2018-03-09T19:35:33.826Z,76674.81
2018-03-09T19:38:01.190Z,76657.61
2018-03-09T19:40:29.180Z,76672.78
2018-03-09T19:43:02.169Z,76681.89
2018-03-09T19:45:29.749Z,76689.98
2018-03-09T19:48:00.223Z,76670.76
2018-03-09T19:50:28.672Z,76657.61
2018-03-09T19:52:56.361Z,76654.57
2018-03-09T19:55:23.839Z,76675.82
2018-03-09T19:57:50.852Z,76658.62
2018-03-09T20:00:18.681Z,76658.62
2018-03-09T20:02:45.857Z,76643.44
2018-03-09T20:05:13.894Z,76669.75
2018-03-09T20:07:42.214Z,76662.66
2018-03-09T20:10:17.475Z,76655.58
2018-03-09T20:12:45.351Z,76634.33
2018-03-09T20:15:12.360Z,76628.26
2018-03-09T20:17:40.663Z,76633.32
2018-03-09T20:20:08.647Z,76654.57
2018-03-09T20:22:36.879Z,76660.64
2018-03-09T20:25:03.658Z,76671.77
2018-03-09T20:27:32.293Z,76655.58
2018-03-09T20:29:59.684Z,76654.57
2018-03-09T20:32:44.625Z,76650.52
2018-03-09T20:35:31.952Z,76643.44
2018-03-09T20:38:06.795Z,76629.27
2018-03-09T20:40:35.301Z,76635.34
2018-03-09T20:43:03.650Z,76649.51
2018-03-09T20:48:39.074Z,76633.32
2018-03-09T20:51:09.372Z,76628.26
2018-03-09T20:53:37.559Z,76623.20
2018-03-09T20:56:05.540Z,76622.19
2018-03-09T20:58:33.967Z,76622.19
2018-03-09T21:01:06.322Z,76623.20
2018-03-09T21:03:52.467Z,76623.20
2018-03-09T21:06:19.613Z,76629.27
2018-03-09T21:08:48.347Z,76601.95
2018-03-09T21:11:17.342Z,76631.30
2018-03-09T21:13:58.289Z,76618.14
2018-03-09T21:16:40.368Z,76615.11
2018-03-09T21:19:08.451Z,76600.94
2018-03-09T21:21:37.987Z,76599.92
2018-03-09T21:24:06.398Z,76586.77
2018-03-09T21:26:49.422Z,76585.76
2018-03-09T21:29:16.991Z,76587.78
2018-03-09T21:31:43.920Z,76586.77
2018-03-09T21:34:19.249Z,76598.91
2018-03-09T21:36:45.947Z,76597.91
2018-03-09T21:39:20.974Z,76597.91
2018-03-09T21:41:47.586Z,76593.86
2018-03-09T21:44:16.261Z,76602.96
2018-03-09T21:46:42.905Z,76612.07
2018-03-09T21:49:10.716Z,76613.08
2018-03-09T21:51:37.800Z,76599.92
2018-03-09T21:54:05.508Z,76591.83
2018-03-09T21:56:32.241Z,76586.77
2018-03-09T21:58:58.794Z,76597.91
2018-03-09T22:01:25.495Z,76615.11
2018-03-09T22:03:52.389Z,76601.95
2018-03-09T22:06:19.072Z,76577.66
2018-03-09T22:08:46.390Z,76559.45
2018-03-09T22:11:12.943Z,76559.45
2018-03-09T22:13:39.572Z,76551.36
2018-03-09T22:16:28.492Z,76546.30
2018-03-09T22:18:55.863Z,76543.26
2018-03-09T22:21:22.456Z,76529.09
2018-03-09T22:23:49.462Z,76534.16
2018-03-09T22:26:16.036Z,76518.98
2018-03-09T22:28:43.341Z,76521.00
2018-03-09T22:31:10.741Z,76514.92
2018-03-09T22:33:37.326Z,76512.91
2018-03-09T22:36:04.000Z,76526.06
2018-03-09T22:38:30.571Z,76505.82
2018-03-09T22:40:57.153Z,76513.91
2018-03-09T22:43:23.794Z,76504.81
2018-03-09T22:45:50.366Z,76510.88
2018-03-09T22:48:16.896Z,76504.81
2018-03-09T22:50:43.467Z,76495.70
2018-03-09T22:53:10.036Z,76502.78
2018-03-09T22:55:36.889Z,76523.02
2018-03-09T22:58:03.722Z,76511.89
2018-03-09T23:00:30.574Z,76510.88
2018-03-09T23:02:57.986Z,76500.77
2018-03-09T23:05:25.746Z,76504.81
2018-03-09T23:07:53.904Z,76495.70
2018-03-09T23:10:20.594Z,76488.62
2018-03-09T23:12:47.129Z,76482.55
2018-03-09T23:15:14.141Z,76482.55
2018-03-09T23:17:40.723Z,76479.52
2018-03-09T23:20:08.011Z,76478.50
2018-03-09T23:22:34.624Z,76479.52
2018-03-09T23:25:01.202Z,76476.48
2018-03-09T23:27:27.797Z,76478.50
2018-03-09T23:29:54.411Z,76478.50
2018-03-09T23:32:20.963Z,76480.52
2018-03-09T23:34:47.623Z,76482.55
2018-03-09T23:37:14.335Z,76470.41
2018-03-09T23:39:41.786Z,76480.52
2018-03-09T23:42:08.369Z,76487.61
2018-03-09T23:44:34.922Z,76482.55
2018-03-09T23:47:01.706Z,76467.38
2018-03-09T23:49:28.326Z,76461.30
2018-03-09T23:51:54.962Z,76451.18
2018-03-09T23:54:22.280Z,76448.14
2018-03-09T23:56:48.841Z,76445.11
2018-03-09T23:59:15.516Z,76448.14
